createdAt,value
2023-09-30T00:00:12.730Z,16.29
2023-09-30T00:02:39.855Z,16.26
2023-09-30T00:05:07.237Z,16.27
2023-09-30T00:07:34.385Z,16.27
2023-09-30T00:10:01.747Z,16.29
2023-09-30T00:12:29.272Z,16.31
2023-09-30T00:14:56.234Z,16.31
2023-09-30T00:17:23.154Z,16.27
2023-09-30T00:19:50.296Z,16.22
2023-09-30T00:22:17.202Z,16.16
2023-09-30T00:24:44.244Z,16.13
2023-09-30T00:27:11.215Z,16.08
2023-09-30T00:29:38.162Z,16.10
2023-09-30T00:32:05.594Z,16.11
2023-09-30T00:34:36.307Z,16.14
2023-09-30T00:37:03.546Z,16.16
2023-09-30T00:39:32.132Z,16.19
2023-09-30T00:42:02.309Z,16.19
2023-09-30T00:44:29.422Z,16.18
2023-09-30T00:46:56.945Z,16.15
2023-09-30T00:49:24.851Z,16.15
2023-09-30T00:51:53.158Z,16.12
2023-09-30T00:54:20.754Z,16.10
2023-09-30T00:56:48.436Z,16.10
2023-09-30T00:59:15.780Z,16.08
2023-09-30T01:01:46.391Z,16.04
2023-09-30T01:04:13.905Z,16.02
2023-09-30T01:06:41.140Z,16.00
2023-09-30T01:09:11.177Z,15.96
2023-09-30T01:11:38.315Z,15.92
2023-09-30T01:14:05.281Z,15.90
2023-09-30T01:16:32.194Z,15.89
2023-09-30T01:18:59.230Z,15.91
2023-09-30T01:21:27.929Z,15.91
2023-09-30T01:23:54.947Z,15.90
2023-09-30T01:26:21.903Z,15.89
2023-09-30T01:28:50.020Z,15.86
2023-09-30T01:31:17.060Z,15.78
2023-09-30T01:33:44.035Z,15.72
2023-09-30T01:36:11.039Z,15.62
2023-09-30T01:38:38.089Z,15.57
2023-09-30T01:41:05.068Z,15.54
2023-09-30T01:43:53.218Z,15.48
2023-09-30T01:46:20.506Z,15.39
2023-09-30T01:48:47.444Z,15.35
2023-09-30T01:51:14.421Z,15.31
2023-09-30T01:53:42.060Z,15.37
2023-09-30T01:56:09.052Z,15.40
2023-09-30T01:58:36.008Z,15.39
2023-09-30T02:01:06.172Z,15.38
2023-09-30T02:03:33.309Z,15.39
2023-09-30T02:06:00.351Z,15.40
2023-09-30T02:08:27.351Z,15.41
2023-09-30T02:10:54.925Z,15.44
2023-09-30T02:13:21.813Z,15.43
2023-09-30T02:15:49.057Z,15.41
2023-09-30T02:18:16.148Z,15.37
2023-09-30T02:20:43.217Z,15.35
2023-09-30T02:23:12.004Z,15.37
2023-09-30T02:25:39.443Z,15.39
2023-09-30T02:28:07.360Z,15.38
2023-09-30T02:30:34.366Z,15.39
2023-09-30T02:33:01.691Z,15.39
2023-09-30T02:35:28.683Z,15.37
2023-09-30T02:37:55.687Z,15.36
2023-09-30T02:40:26.056Z,15.37
2023-09-30T02:42:53.379Z,15.33
2023-09-30T02:45:21.097Z,15.34
2023-09-30T02:47:48.428Z,15.36
2023-09-30T02:50:15.387Z,15.38
2023-09-30T02:52:42.411Z,15.38
2023-09-30T02:55:10.561Z,15.42
2023-09-30T02:57:37.564Z,15.45
2023-09-30T03:00:24.006Z,15.45
2023-09-30T03:02:52.170Z,15.44
2023-09-30T03:05:19.677Z,15.44
2023-09-30T03:07:46.946Z,15.44
2023-09-30T03:10:21.545Z,15.46
2023-09-30T03:12:49.246Z,15.49
2023-09-30T03:15:16.813Z,15.52
2023-09-30T03:17:43.808Z,15.53
2023-09-30T03:20:13.349Z,15.50
2023-09-30T03:22:41.611Z,15.45
2023-09-30T03:25:09.844Z,15.36
2023-09-30T03:27:37.564Z,15.30
2023-09-30T03:30:06.928Z,15.18
2023-09-30T03:32:34.809Z,15.11
2023-09-30T03:35:02.233Z,15.09
2023-09-30T03:37:32.588Z,15.13
2023-09-30T03:39:59.588Z,15.16
2023-09-30T03:42:26.585Z,15.18
2023-09-30T03:44:53.486Z,15.22
2023-09-30T03:47:20.796Z,15.24
2023-09-30T03:49:49.449Z,15.26
2023-09-30T03:52:16.362Z,15.28
2023-09-30T03:54:43.352Z,15.29
2023-09-30T03:57:12.822Z,15.35
2023-09-30T03:59:39.756Z,15.41
2023-09-30T04:02:07.664Z,15.46
2023-09-30T04:04:35.692Z,15.49
2023-09-30T04:07:02.655Z,15.51
2023-09-30T04:09:29.549Z,15.53
2023-09-30T04:11:56.560Z,15.56
2023-09-30T04:14:23.451Z,15.61
2023-09-30T04:16:50.378Z,15.66
2023-09-30T04:19:17.683Z,15.62
2023-09-30T04:21:44.623Z,15.62
2023-09-30T04:24:11.571Z,15.65
2023-09-30T04:26:38.476Z,15.66
2023-09-30T04:29:06.128Z,15.63
2023-09-30T04:31:33.134Z,15.59
2023-09-30T04:34:00.364Z,15.57
2023-09-30T04:36:27.482Z,15.64
2023-09-30T04:38:54.393Z,15.72
2023-09-30T04:41:22.636Z,15.81
2023-09-30T04:43:51.005Z,15.87
2023-09-30T04:46:21.786Z,15.95
2023-09-30T04:48:49.988Z,16.00
2023-09-30T04:51:19.428Z,16.05
2023-09-30T04:53:47.674Z,16.12
2023-09-30T04:56:14.980Z,16.16
2023-09-30T04:58:42.080Z,16.20
2023-09-30T05:01:10.106Z,16.24
2023-09-30T05:03:37.485Z,16.31
2023-09-30T05:06:04.816Z,16.40
2023-09-30T05:08:32.163Z,16.49
2023-09-30T05:10:59.121Z,16.58
2023-09-30T05:13:26.109Z,16.64
2023-09-30T05:15:53.803Z,16.71
2023-09-30T05:18:20.879Z,16.74
2023-09-30T05:20:47.900Z,16.76
2023-09-30T05:23:16.016Z,16.77
2023-09-30T05:25:44.201Z,16.79
2023-09-30T05:28:12.921Z,16.86
2023-09-30T05:30:40.586Z,16.91
2023-09-30T05:33:08.181Z,16.90
2023-09-30T05:35:35.165Z,16.93
2023-09-30T05:38:02.208Z,16.98
2023-09-30T05:40:31.875Z,17.01
2023-09-30T05:43:00.276Z,17.05
2023-09-30T05:45:28.603Z,17.13
2023-09-30T05:47:57.743Z,17.25
2023-09-30T05:50:28.458Z,17.29
2023-09-30T05:52:56.703Z,17.38
2023-09-30T05:55:24.038Z,17.47
2023-09-30T05:57:51.435Z,17.52
2023-09-30T06:00:29.725Z,17.57
2023-09-30T06:02:58.091Z,17.64
2023-09-30T06:05:25.129Z,17.70
2023-09-30T06:07:52.069Z,17.77
2023-09-30T06:10:21.874Z,17.86
2023-09-30T06:12:49.645Z,17.92
2023-09-30T06:15:17.412Z,17.95
2023-09-30T06:17:45.133Z,17.99
2023-09-30T06:20:17.573Z,18.03
2023-09-30T06:22:48.635Z,18.02
2023-09-30T06:25:17.776Z,18.00
2023-09-30T06:27:45.789Z,18.05
2023-09-30T06:30:14.619Z,18.05
2023-09-30T06:32:41.863Z,18.09
2023-09-30T06:35:11.575Z,18.17
2023-09-30T06:37:42.110Z,18.28
2023-09-30T06:40:10.031Z,18.44
2023-09-30T06:42:37.157Z,18.55
2023-09-30T06:45:07.006Z,18.64
2023-09-30T06:47:37.917Z,18.67
2023-09-30T06:50:08.944Z,18.73
2023-09-30T06:52:36.690Z,18.83
2023-09-30T06:55:05.853Z,18.87
2023-09-30T06:57:33.936Z,18.91
2023-09-30T07:00:00.858Z,18.98
2023-09-30T07:02:27.863Z,19.10
2023-09-30T07:04:54.937Z,19.20
2023-09-30T07:07:21.956Z,19.22
2023-09-30T07:09:49.357Z,19.26
2023-09-30T07:12:16.486Z,19.34
2023-09-30T07:14:43.415Z,19.40
2023-09-30T07:17:10.385Z,19.42
2023-09-30T07:19:37.476Z,19.51
2023-09-30T07:22:05.497Z,19.56
2023-09-30T07:24:32.758Z,19.63
2023-09-30T07:27:06.472Z,19.66
2023-09-30T07:29:40.992Z,19.69
2023-09-30T07:32:08.591Z,19.84
2023-09-30T07:34:35.733Z,19.84
2023-09-30T07:37:02.719Z,19.79
2023-09-30T07:39:30.559Z,19.95
2023-09-30T07:41:57.504Z,20.07
2023-09-30T07:44:24.389Z,20.12
2023-09-30T07:46:51.358Z,20.17
2023-09-30T07:49:18.399Z,20.22
2023-09-30T07:51:47.407Z,20.37
2023-09-30T07:54:30.341Z,20.31
2023-09-30T07:56:58.912Z,20.15
2023-09-30T07:59:26.670Z,20.28
2023-09-30T08:01:54.089Z,20.33
2023-09-30T08:04:23.615Z,20.46
2023-09-30T08:06:52.298Z,20.55
2023-09-30T08:09:19.857Z,20.61
2023-09-30T08:11:46.965Z,20.64
2023-09-30T08:14:13.979Z,20.66
2023-09-30T08:16:41.576Z,20.72
2023-09-30T08:19:08.566Z,20.90
2023-09-30T08:21:35.642Z,20.91
2023-09-30T08:24:03.387Z,20.85
2023-09-30T08:26:30.504Z,20.85
2023-09-30T08:28:57.599Z,20.90
2023-09-30T08:31:25.597Z,20.99
2023-09-30T08:33:53.146Z,20.90
2023-09-30T08:36:20.253Z,20.73
2023-09-30T08:38:47.675Z,20.83
2023-09-30T08:41:26.904Z,20.99
2023-09-30T08:43:57.010Z,21.15
2023-09-30T08:46:25.682Z,21.29
2023-09-30T08:48:53.419Z,20.87
2023-09-30T08:51:20.427Z,20.99
2023-09-30T08:53:47.443Z,20.84
2023-09-30T08:56:15.608Z,20.70
2023-09-30T08:58:43.053Z,21.13
2023-09-30T09:01:11.673Z,21.27
2023-09-30T09:03:38.961Z,21.41
2023-09-30T09:06:05.963Z,21.48
2023-09-30T09:08:34.229Z,21.62
2023-09-30T09:11:04.828Z,21.48
2023-09-30T09:13:50.773Z,21.43
2023-09-30T09:16:21.255Z,21.10
2023-09-30T09:18:55.021Z,21.28
2023-09-30T09:21:24.939Z,21.12
2023-09-30T09:23:56.062Z,21.11
2023-09-30T09:26:29.140Z,21.36
2023-09-30T09:29:01.783Z,21.30
2023-09-30T09:31:36.200Z,21.33
2023-09-30T09:34:15.419Z,21.59
2023-09-30T09:36:44.373Z,21.51
2023-09-30T09:39:14.940Z,21.46
2023-09-30T09:41:54.556Z,21.34
2023-09-30T09:44:24.820Z,21.36
2023-09-30T09:46:52.141Z,21.55
2023-09-30T09:49:19.725Z,21.42
2023-09-30T09:51:49.595Z,21.63
2023-09-30T09:54:17.210Z,21.55
2023-09-30T09:56:47.193Z,21.55
2023-09-30T09:59:14.570Z,21.91
2023-09-30T10:01:42.644Z,22.18
2023-09-30T10:04:12.209Z,22.18
2023-09-30T10:06:42.602Z,21.82
2023-09-30T10:09:11.456Z,21.46
2023-09-30T10:11:41.728Z,21.72
2023-09-30T10:14:15.698Z,21.75
2023-09-30T10:16:45.425Z,21.74
2023-09-30T10:19:13.387Z,21.58
2023-09-30T10:21:40.736Z,21.52
2023-09-30T10:24:31.169Z,21.69
2023-09-30T10:27:17.473Z,21.47
2023-09-30T10:29:44.408Z,21.61
2023-09-30T10:32:11.418Z,21.89
2023-09-30T10:34:39.119Z,22.31
2023-09-30T10:37:21.661Z,22.46
2023-09-30T10:39:54.980Z,22.61
2023-09-30T10:42:40.918Z,22.63
2023-09-30T10:45:08.699Z,22.48
2023-09-30T10:47:36.411Z,22.43
2023-09-30T10:50:03.731Z,22.46
2023-09-30T10:52:31.574Z,22.15
2023-09-30T10:55:08.525Z,22.21
2023-09-30T10:57:35.522Z,22.44
2023-09-30T11:00:12.768Z,22.32
2023-09-30T11:02:52.821Z,22.31
2023-09-30T11:05:32.046Z,22.45
2023-09-30T11:08:04.442Z,22.24
2023-09-30T11:10:31.413Z,21.99
2023-09-30T11:12:59.004Z,22.10
2023-09-30T11:15:26.274Z,22.29
2023-09-30T11:17:53.392Z,22.30
2023-09-30T11:20:21.962Z,22.22
2023-09-30T11:22:49.801Z,22.32
2023-09-30T11:25:20.269Z,21.73
2023-09-30T11:27:48.078Z,22.12
2023-09-30T11:30:15.791Z,22.36
2023-09-30T11:32:43.783Z,22.46
2023-09-30T11:35:12.448Z,22.23
2023-09-30T11:37:42.276Z,22.44
2023-09-30T11:40:15.330Z,22.55
2023-09-30T11:42:45.761Z,22.58
2023-09-30T11:45:23.883Z,22.44
2023-09-30T11:47:51.264Z,22.50
2023-09-30T11:50:19.312Z,22.48
2023-09-30T11:52:49.295Z,22.28
2023-09-30T11:55:17.877Z,22.39
2023-09-30T11:57:48.869Z,22.41
2023-09-30T12:00:17.907Z,22.21
2023-09-30T12:02:45.934Z,22.30
2023-09-30T12:05:14.609Z,22.42
2023-09-30T12:07:44.731Z,22.39
2023-09-30T12:10:11.635Z,22.34
2023-09-30T12:12:41.177Z,22.10
2023-09-30T12:15:10.359Z,21.95
2023-09-30T12:17:38.415Z,22.11
2023-09-30T12:20:07.849Z,22.19
2023-09-30T12:22:34.752Z,22.30
2023-09-30T12:25:02.278Z,22.06
2023-09-30T12:27:30.581Z,22.15
2023-09-30T12:29:59.338Z,22.34
2023-09-30T12:32:27.038Z,22.33
2023-09-30T12:34:54.748Z,22.33
2023-09-30T12:37:21.646Z,22.32
2023-09-30T12:39:49.033Z,22.45
2023-09-30T12:42:16.994Z,22.51
2023-09-30T12:44:43.911Z,22.42
2023-09-30T12:47:10.922Z,22.46
2023-09-30T12:49:39.003Z,22.36
2023-09-30T12:52:06.169Z,22.33
2023-09-30T12:54:33.207Z,22.21
2023-09-30T12:57:00.154Z,22.14
2023-09-30T12:59:29.058Z,22.17
2023-09-30T13:01:56.134Z,22.34
2023-09-30T13:04:25.040Z,22.39
2023-09-30T13:06:52.059Z,22.37
2023-09-30T13:09:21.282Z,22.43
2023-09-30T13:11:48.957Z,22.30
2023-09-30T13:14:17.088Z,22.13
2023-09-30T13:16:45.297Z,22.15
2023-09-30T13:19:13.093Z,22.12
2023-09-30T13:21:41.995Z,22.11
2023-09-30T13:24:11.480Z,22.22
2023-09-30T13:26:38.439Z,22.25
2023-09-30T13:29:06.404Z,22.17
2023-09-30T13:31:33.823Z,22.17
2023-09-30T13:34:00.985Z,22.18
2023-09-30T13:36:27.978Z,22.19
2023-09-30T13:38:54.966Z,22.11
2023-09-30T13:41:22.037Z,22.03
2023-09-30T13:43:49.189Z,22.11
2023-09-30T13:46:17.248Z,22.24
2023-09-30T13:48:44.435Z,22.30
2023-09-30T13:51:18.276Z,22.39
2023-09-30T13:53:45.393Z,22.39
2023-09-30T13:56:12.863Z,22.37
2023-09-30T13:58:42.220Z,22.32
2023-09-30T14:01:09.279Z,22.11
2023-09-30T14:03:42.130Z,22.13
2023-09-30T14:06:16.351Z,22.11
2023-09-30T14:08:48.035Z,22.05
2023-09-30T14:11:22.497Z,22.04
2023-09-30T14:13:50.318Z,22.04
2023-09-30T14:16:17.606Z,22.03
2023-09-30T14:18:46.415Z,22.01
2023-09-30T14:21:13.390Z,21.95
2023-09-30T14:23:42.271Z,21.95
2023-09-30T14:26:12.288Z,21.92
2023-09-30T14:28:39.411Z,21.86
2023-09-30T14:31:09.071Z,21.76
2023-09-30T14:33:36.122Z,21.72
2023-09-30T14:36:03.801Z,21.68
2023-09-30T14:38:30.774Z,21.69
2023-09-30T14:41:00.551Z,21.65
2023-09-30T14:43:30.599Z,21.57
2023-09-30T14:45:58.305Z,21.57
2023-09-30T14:48:28.411Z,21.51
2023-09-30T14:50:56.364Z,21.49
2023-09-30T14:53:25.751Z,21.49
2023-09-30T14:55:53.976Z,21.43
2023-09-30T14:58:21.007Z,21.40
2023-09-30T15:00:49.054Z,21.37
2023-09-30T15:03:16.120Z,21.32
2023-09-30T15:05:47.069Z,21.29
2023-09-30T15:08:13.955Z,21.25
2023-09-30T15:10:45.701Z,21.19
2023-09-30T15:13:13.155Z,21.14
2023-09-30T15:15:41.141Z,21.07
2023-09-30T15:18:08.226Z,21.03
2023-09-30T15:20:45.123Z,20.99
2023-09-30T15:23:15.304Z,20.94
2023-09-30T15:25:43.970Z,20.87
2023-09-30T15:28:11.356Z,20.82
2023-09-30T15:30:38.378Z,20.81
2023-09-30T15:33:05.651Z,20.76
2023-09-30T15:35:32.584Z,20.72
2023-09-30T15:37:59.776Z,20.69
2023-09-30T15:40:27.126Z,20.67
2023-09-30T15:42:54.059Z,20.62
2023-09-30T15:45:21.135Z,20.60
2023-09-30T15:47:50.866Z,20.60
2023-09-30T15:50:18.335Z,20.58
2023-09-30T15:52:46.166Z,20.54
2023-09-30T15:55:13.237Z,20.49
2023-09-30T15:57:43.829Z,20.46
2023-09-30T16:00:11.686Z,20.43
2023-09-30T16:02:38.895Z,20.38
2023-09-30T16:05:06.081Z,20.35
2023-09-30T16:07:33.195Z,20.32
2023-09-30T16:10:00.269Z,20.28
2023-09-30T16:12:27.354Z,20.25
2023-09-30T16:14:57.472Z,20.19
2023-09-30T16:17:24.335Z,20.13
2023-09-30T16:19:51.378Z,20.06
2023-09-30T16:22:18.298Z,20.02
2023-09-30T16:24:46.619Z,19.95
2023-09-30T16:27:13.585Z,19.93
2023-09-30T16:29:40.641Z,19.92
2023-09-30T16:32:10.495Z,19.89
2023-09-30T16:34:37.561Z,19.90
2023-09-30T16:37:18.478Z,19.90
2023-09-30T16:39:48.573Z,19.89
2023-09-30T16:42:15.504Z,19.87
2023-09-30T16:44:46.120Z,19.81
2023-09-30T16:47:13.067Z,19.79
2023-09-30T16:49:40.007Z,19.79
2023-09-30T16:52:07.092Z,19.75
2023-09-30T16:54:34.452Z,19.73
2023-09-30T16:57:01.480Z,19.63
2023-09-30T16:59:30.273Z,19.54
2023-09-30T17:01:57.308Z,19.47
2023-09-30T17:04:24.315Z,19.35
2023-09-30T17:06:51.471Z,19.27
2023-09-30T17:09:18.546Z,19.24
2023-09-30T17:11:45.438Z,19.26
2023-09-30T17:14:15.432Z,19.27
2023-09-30T17:16:42.348Z,19.28
2023-09-30T17:19:09.806Z,19.29
2023-09-30T17:21:39.013Z,19.31
2023-09-30T17:24:06.162Z,19.29
2023-09-30T17:26:33.093Z,19.27
2023-09-30T17:28:59.970Z,19.23
2023-09-30T17:31:27.763Z,19.22
2023-09-30T17:33:54.922Z,19.19
2023-09-30T17:36:21.905Z,19.18
2023-09-30T17:38:49.633Z,19.20
2023-09-30T17:41:16.560Z,19.21
2023-09-30T17:43:44.266Z,19.19
2023-09-30T17:46:16.157Z,19.17
2023-09-30T17:48:46.761Z,19.16
2023-09-30T17:51:15.760Z,19.14
2023-09-30T17:53:42.706Z,19.11
2023-09-30T17:56:19.114Z,19.04
2023-09-30T17:58:46.199Z,19.02
2023-09-30T18:01:20.610Z,19.01
2023-09-30T18:03:48.692Z,19.00
2023-09-30T18:06:15.724Z,19.00
2023-09-30T18:08:43.205Z,18.98
2023-09-30T18:11:10.845Z,18.98
2023-09-30T18:13:39.909Z,18.94
2023-09-30T18:16:08.198Z,18.94
2023-09-30T18:18:36.314Z,18.92
2023-09-30T18:21:03.612Z,18.88
2023-09-30T18:23:30.701Z,18.86
2023-09-30T18:25:57.628Z,18.78
2023-09-30T18:28:25.305Z,18.74
2023-09-30T18:30:52.283Z,18.75
2023-09-30T18:33:20.069Z,18.74
2023-09-30T18:35:47.198Z,18.74
2023-09-30T18:38:15.223Z,18.73
2023-09-30T18:40:44.325Z,18.71
2023-09-30T18:43:15.190Z,18.77
2023-09-30T18:45:42.980Z,18.78
2023-09-30T18:48:11.584Z,18.82
2023-09-30T18:50:45.831Z,18.89
2023-09-30T18:53:14.027Z,18.91
2023-09-30T18:55:42.047Z,18.94
2023-09-30T18:58:10.701Z,18.97
2023-09-30T19:00:39.797Z,18.95
2023-09-30T19:03:09.731Z,18.97
2023-09-30T19:05:37.891Z,18.99
2023-09-30T19:08:05.440Z,19.00
2023-09-30T19:10:32.947Z,19.00
2023-09-30T19:13:00.328Z,19.02
2023-09-30T19:15:28.418Z,19.03
2023-09-30T19:17:55.593Z,19.00
2023-09-30T19:20:23.926Z,19.04
2023-09-30T19:22:54.732Z,19.05
2023-09-30T19:25:22.042Z,19.06
2023-09-30T19:27:49.009Z,19.09
2023-09-30T19:30:16.130Z,19.08
2023-09-30T19:32:43.290Z,19.08
2023-09-30T19:35:10.487Z,19.07
2023-09-30T19:37:37.599Z,19.05
2023-09-30T19:40:05.184Z,19.06
2023-09-30T19:42:32.402Z,19.05
2023-09-30T19:45:00.825Z,19.04
2023-09-30T19:47:28.264Z,19.05
2023-09-30T19:49:55.904Z,19.06
2023-09-30T19:52:32.742Z,19.02
2023-09-30T19:54:59.799Z,18.91
2023-09-30T19:57:36.357Z,18.92
2023-09-30T20:00:05.494Z,18.97
2023-09-30T20:02:32.594Z,19.02
2023-09-30T20:04:59.595Z,19.06
2023-09-30T20:07:26.537Z,18.93
2023-09-30T20:09:54.356Z,18.90
2023-09-30T20:12:22.760Z,18.93
2023-09-30T20:14:49.736Z,18.91
2023-09-30T20:17:19.365Z,18.94
2023-09-30T20:19:47.971Z,18.96
2023-09-30T20:22:15.023Z,18.93
2023-09-30T20:24:42.136Z,18.96
2023-09-30T20:27:11.292Z,18.94
2023-09-30T20:29:38.220Z,18.96
2023-09-30T20:32:05.370Z,18.87
2023-09-30T20:34:32.297Z,18.88
2023-09-30T20:36:59.581Z,18.93
2023-09-30T20:39:26.680Z,18.98
2023-09-30T20:41:53.577Z,18.97
2023-09-30T20:44:20.491Z,18.94
2023-09-30T20:46:49.051Z,18.91
2023-09-30T20:49:19.314Z,18.89
2023-09-30T20:51:46.922Z,18.83
2023-09-30T20:54:14.022Z,18.85
2023-09-30T20:56:40.955Z,18.85
2023-09-30T20:59:08.166Z,18.76
2023-09-30T21:01:35.248Z,18.75
2023-09-30T21:04:04.909Z,18.73
2023-09-30T21:06:31.806Z,18.73
2023-09-30T21:08:58.922Z,18.71
2023-09-30T21:11:25.941Z,18.64
2023-09-30T21:13:53.011Z,18.67
2023-09-30T21:16:20.147Z,18.69
2023-09-30T21:18:47.206Z,18.69
2023-09-30T21:21:14.281Z,18.70
2023-09-30T21:23:41.477Z,18.70
2023-09-30T21:26:15.042Z,18.68
2023-09-30T21:28:47.479Z,18.65
2023-09-30T21:31:17.953Z,18.63
2023-09-30T21:33:45.922Z,18.63
2023-09-30T21:36:13.681Z,18.62
2023-09-30T21:38:40.938Z,18.56
2023-09-30T21:41:25.190Z,18.55
2023-09-30T21:43:52.615Z,18.52
2023-09-30T21:46:19.785Z,18.57
2023-09-30T21:48:48.021Z,18.57
2023-09-30T21:51:15.660Z,18.55
2023-09-30T21:53:42.569Z,18.46
2023-09-30T21:56:09.592Z,18.46
2023-09-30T21:58:36.449Z,18.51
2023-09-30T22:01:06.822Z,18.54
2023-09-30T22:03:34.203Z,18.54
2023-09-30T22:06:01.710Z,18.55
2023-09-30T22:08:29.769Z,18.57
2023-09-30T22:10:56.746Z,18.58
2023-09-30T22:13:25.984Z,18.59
2023-09-30T22:15:56.038Z,18.61
2023-09-30T22:18:26.430Z,18.61
2023-09-30T22:20:53.928Z,18.58
2023-09-30T22:23:20.986Z,18.54
2023-09-30T22:25:49.963Z,18.52
2023-09-30T22:28:17.370Z,18.51
2023-09-30T22:30:44.411Z,18.49
2023-09-30T22:33:11.400Z,18.52
2023-09-30T22:35:42.031Z,18.49
2023-09-30T22:38:12.702Z,18.45
2023-09-30T22:40:39.737Z,18.44
2023-09-30T22:43:06.894Z,18.43
2023-09-30T22:45:34.670Z,18.47
2023-09-30T22:48:01.847Z,18.52
2023-09-30T22:50:28.840Z,18.49
2023-09-30T22:52:56.581Z,18.45
2023-09-30T22:55:24.872Z,18.40
2023-09-30T22:57:56.567Z,18.43
2023-09-30T23:00:28.461Z,18.46
2023-09-30T23:02:58.911Z,18.45
2023-09-30T23:05:29.466Z,18.40
2023-09-30T23:07:56.740Z,18.36
2023-09-30T23:10:24.184Z,18.36
2023-09-30T23:12:51.490Z,18.37
2023-09-30T23:15:19.964Z,18.34
2023-09-30T23:17:51.080Z,18.30
2023-09-30T23:20:21.859Z,18.30
2023-09-30T23:22:52.904Z,18.31
2023-09-30T23:25:24.572Z,18.30
2023-09-30T23:27:51.667Z,18.26
2023-09-30T23:30:19.140Z,18.23
2023-09-30T23:32:49.329Z,18.24
2023-09-30T23:35:17.688Z,18.23
2023-09-30T23:37:58.464Z,18.21
2023-09-30T23:40:25.760Z,18.19
2023-09-30T23:42:55.372Z,18.20
2023-09-30T23:45:23.248Z,18.20
2023-09-30T23:47:52.612Z,18.16
2023-09-30T23:50:20.588Z,18.11
2023-09-30T23:52:54.840Z,18.10
2023-09-30T23:55:26.722Z,18.11
2023-09-30T23:57:58.144Z,18.11
